Latest METARs, TAFs and NOTAMs for SKBQ


---------------------------------------------------------------------------
	(OBSERVATIONS)
SKBQ 291700Z 10004KT 9999 FEW015TCU 36/25 A2979 RMK TCU/E=
SKBQ 291600Z 00000KT 9999 FEW015 35/26 A2981=
SKBQ 291500Z VRB02KT CAVOK 33/25 A2982=
---------------------------------------------------------------------------
	(TERMINAL AREA FORECAST)
SKBQ 291700Z 291818 VRB02KT 9999 FEW017 SCT200
    TEMPO 2919/2923 04012KT
    PROB40 TEMPO 3022/3001 VCSH SCT017CB
    BECMG 3001/3003 36010KT FEW020TCU
    TEMPO  3009/3014 8000 BKN015
    TX34/2918Z TN25/3011Z=
---------------------------------------------------------------------------
	(NOTAMS)


SKBQ A0384/17 TWY E SECT C, CLSD. H24, 06 FEB 17:58 2017 UNTIL
    07 MAY 23:59 2017. CREATED: 06 FEB 18:03 2017

SKBQ A0386/17 POINT Z RELOCATED TEMPO NEXT COORD 105342,99N0744624,59W
    ELEV 16,33 M. H24, 06 FEB 19:44 2017 UNTIL 18 MAY 23:59 2017.
    CREATED: 06 FEB 19:49 2017

SKBQ A0450/17 FREQ 118,1 MHZ ERNESTO CORTISSOZ TWR U/S OPR FREQ
    ALTN 118.45 MHZ. H24, 13 FEB 14:10 2017 UNTIL 16 MAY 23:59
    2017 ESTIMATED. CREATED: 13 FEB 14:14 2017

SKBQ A0513/17 APN ASPHALT RELEASE, EXER CTN. 21 FEB 16:40 2017
    UNTIL 22 MAY 23:59 2017 ESTIMATED. CREATED: 21 FEB 16:46
    2017

SKBQ A0628/17 ILS/LLZ IBAQ FREQ 109.9 MHZ U/S. H24, 03 MAR 14:00
    2017 UNTIL 31 MAY 22:00 2017. CREATED: 03 MAR 05:10 2017

SKBQ A0629/17 IAP ILS-Z RWY 05 NOT AVBL IAP ILS-Y RWY 05 NOT
    AVBL IAP LOC RWY 05 NOT AVBL. H24, 03 MAR 14:00 2017 UNTIL
    31 MAY 22:00 2017. CREATED: 03 MAR 05:14 2017

SKBQ A0642/17 TWY G BTN CARGO APN AND TWY B REUBICATION TEST
    OF ENG ON COORD: 105337,89N0744624,81W ONLY ACFT CAT A, B.
    DLY BTN 1200-2200, 04 MAR 13:58 2017 UNTIL 06 MAY 22:00 2017.
    CREATED: 04 MAR 14:02 2017

SKBQ A0739/17 ACFT STAND NR 6 CLSD. H24, 13 MAR 15:31 2017 UNTIL
    13 MAR 23:59 2018. CREATED: 13 MAR 15:32 2017

SKBQ A0904/17 IAP RNAV (GNSS) RWY 23 NO AVBL. 05 APR 12:40 2017
    UNTIL 05 JUL 23:59 2017 ESTIMATED. CREATED: 05 APR 12:45
    2017

SKBQ A0969/17 STRIP RWY 05/23, PRESENCE OF WORKERS AND MACHINERY,
    EXER CTN. H24, 17 APR 00:00 2017 UNTIL 30 APR 23:59 2017.
    CREATED: 12 APR 13:32 2017

SKBQ A0987/17 INT TWY A AND TWY B CLSD. DLY BTN 0400-1030, 16
    APR 04:00 2017 UNTIL 30 APR 10:30 2017. CREATED: 13 APR 10:26
    2017

SKBQ A1025/17 RWY 05/23 CLSD NO AUTH EXTD HR OPS. DLY BTN 0500-1100,
    26 APR 05:00 2017 UNTIL 18 AUG 11:00 2017. CREATED: 17 APR
    21:10 2017

SKBQ A2283/09 VOR BAQ FREQ 113.7 MHZ, U/S 27 SEP 23:38 UNTIL
    29 SEP 23:00 ESTIMATED H24

SKBQ C2117/09 TWY I OPR UNICAMENTE AVIACION MIL. H24, 31 MAY
    00:22 2009 UNTIL PERM. CREATED: 31 MAY 00:24 2009

SKBQ C4395/09 RVR 05, U/S 04 NOV 21:10 UNTIL 11 NOV 23:00 ESTIMATED

SKBQ F2452/10 [DEFENSE ENERGY SUPPORT CENTER ADVISORY] FUEL AVAILABILITY
    HOURS OF SERVICE ARE: MONDAY - FRIDAY 0600 -2200 LOCAL TIME.
    SATURDAY AND SUNDAY 08:30 -1830 LOCAL TIME. DESC DUTY OFFICER'S
    TELEPHONE NUMBER 703-767-8420, DSN 427-8420. 04 OCT 29:18
    2020 UNTIL 07 OCT 28:18 2020

---------------------------------------------------------------------------